Time;durP1;ratioP1;P1;durP2;ratioP2;P2;SDS_P1;SDS_P2;PMS_P1;PMS_P2;Temp;Humidity;BMP_temperature;BMP_pressure;BME280_temperature;BME280_humidity;BME280_pressure;Samples;Min_cycle;Max_cycle;Signal;HPM_P1;HPM_P2
2022/12/30 00:00:08;;;;;;;;;;;7.20;99.90;;;;;;5097657;28;20366;-63
2022/12/30 00:02:35;;;;;;;;;;;7.20;99.90;;;;;;5097503;28;20029;-63
2022/12/30 00:05:00;;;;;;;;;;;7.10;99.90;;;;;;5097479;28;19953;-63
2022/12/30 00:07:26;;;;;;;;;;;7.00;99.90;;;;;;5097404;28;19987;-63
2022/12/30 00:09:53;;;;;;;;;;;7.00;99.90;;;;;;5097395;28;19908;-63
2022/12/30 00:34:32;;;;;;;;;;;6.90;99.90;;;;;;5096545;28;19927;-63
2022/12/30 00:36:58;;;;;;;;;;;7.00;99.90;;;;;;5097175;28;19908;-62
2022/12/30 00:39:23;;;;;;;;;;;7.00;99.90;;;;;;5096846;28;20010;-63
2022/12/30 00:44:34;;;;;;;;;;;7.00;99.90;;;;;;5096570;28;20336;-63
2022/12/30 00:47:00;;;;;;;;;;;7.00;99.90;;;;;;5096716;28;19939;-63
2022/12/30 00:57:42;;;;;;;;;;;7.00;99.90;;;;;;5096314;28;20381;-64
2022/12/30 01:00:09;;;;;;;;;;;7.00;99.90;;;;;;5096753;28;19908;-63
2022/12/30 01:02:34;;;;;;;;;;;6.90;99.90;;;;;;5096450;28;19915;-62
2022/12/30 01:05:00;;;;;;;;;;;6.90;99.90;;;;;;5096669;28;19908;-63
2022/12/30 01:07:27;;;;;;;;;;;6.90;99.90;;;;;;5095823;28;19915;-63
2022/12/30 01:09:52;;;;;;;;;;;6.80;99.90;;;;;;5096533;28;19965;-63
2022/12/30 01:12:18;;;;;;;;;;;6.80;99.90;;;;;;5096218;28;19912;-63
2022/12/30 01:14:45;;;;;;;;;;;6.80;99.90;;;;;;5096065;28;19927;-63
2022/12/30 01:17:12;;;;;;;;;;;6.90;99.90;;;;;;5096424;28;19908;-63
2022/12/30 01:19:38;;;;;;;;;;;6.90;99.90;;;;;;5096084;28;19908;-63
2022/12/30 01:22:04;;;;;;;;;;;6.90;99.90;;;;;;5096044;28;19908;-63
2022/12/30 01:24:29;;;;;;;;;;;6.70;99.90;;;;;;5096006;28;19908;-63
2022/12/30 01:26:55;;;;;;;;;;;6.70;99.90;;;;;;5095952;28;20304;-63
2022/12/30 01:29:37;;;;;;;;;;;6.70;99.90;;;;;;5095897;28;19912;-63
2022/12/30 01:32:03;;;;;;;;;;;6.70;99.90;;;;;;5096107;28;20394;-63
2022/12/30 01:34:29;;;;;;;;;;;6.70;99.90;;;;;;5077532;28;19920;-63
2022/12/30 01:36:54;;;;;;;;;;;6.70;99.90;;;;;;5095742;28;19957;-63
2022/12/30 01:39:20;;;;;;;;;;;6.70;99.90;;;;;;5095945;28;19920;-63
2022/12/30 01:41:46;;;;;;;;;;;6.80;99.90;;;;;;5095652;28;19915;-63
2022/12/30 01:44:31;;;;;;;;;;;6.70;99.90;;;;;;5095681;28;19947;-63
2022/12/30 01:46:56;;;;;;;;;;;6.60;99.90;;;;;;5095436;28;19909;-63
2022/12/30 01:49:22;;;;;;;;;;;6.70;99.90;;;;;;5095509;28;19914;-63
2022/12/30 01:51:47;;;;;;;;;;;6.60;99.90;;;;;;5095513;28;19908;-63
2022/12/30 01:54:13;;;;;;;;;;;6.60;99.90;;;;;;5095264;28;20277;-64
2022/12/30 01:56:40;;;;;;;;;;;6.50;99.90;;;;;;5095340;28;19953;-63
2022/12/30 01:59:14;;;;;;;;;;;6.50;99.90;;;;;;5095279;28;20006;-63
2022/12/30 02:01:40;;;;;;;;;;;6.60;99.90;;;;;;5095235;28;19908;-63
2022/12/30 02:04:08;;;;;;;;;;;6.60;99.90;;;;;;5095196;28;19957;-63
2022/12/30 02:06:40;;;;;;;;;;;6.50;99.90;;;;;;5095386;28;19995;-63
2022/12/30 02:09:06;;;;;;;;;;;6.50;99.90;;;;;;5095367;28;19930;-63
2022/12/30 02:11:32;;;;;;;;;;;6.50;99.90;;;;;;5095094;28;20361;-63
2022/12/30 02:13:58;;;;;;;;;;;6.50;99.90;;;;;;5095228;28;20285;-63
2022/12/30 02:16:30;;;;;;;;;;;6.40;99.90;;;;;;5095210;28;19908;-63
2022/12/30 02:19:02;;;;;;;;;;;6.50;99.90;;;;;;5094343;28;19919;-63
2022/12/30 02:21:47;;;;;;;;;;;6.40;99.90;;;;;;5095151;28;20317;-63
2022/12/30 02:24:33;;;;;;;;;;;6.40;99.90;;;;;;5094797;28;19991;-63
2022/12/30 02:27:10;;;;;;;;;;;6.50;99.90;;;;;;5076611;28;19908;-63
2022/12/30 02:29:56;;;;;;;;;;;6.40;99.90;;;;;;5094720;28;20365;-63
2022/12/30 02:35:06;;;;;;;;;;;6.40;99.90;;;;;;5071147;28;19919;-62
2022/12/30 02:37:51;;;;;;;;;;;6.40;99.90;;;;;;5070965;28;19924;-62
2022/12/30 02:40:22;;;;;;;;;;;6.20;99.90;;;;;;5070905;28;20274;-63
2022/12/30 02:45:41;;;;;;;;;;;6.20;99.90;;;;;;5070658;28;19909;-62
2022/12/30 02:48:10;;;;;;;;;;;6.20;99.90;;;;;;5070749;28;20256;-62
2022/12/30 02:53:26;;;;;;;;;;;6.20;99.90;;;;;;5070448;28;19967;-62
2022/12/30 02:55:52;;;;;;;;;;;6.30;99.90;;;;;;5086539;28;19920;-62
2022/12/30 02:58:18;;;;;;;;;;;6.20;99.90;;;;;;5070616;28;19934;-62
2022/12/30 03:06:42;;;;;;;;;;;6.30;99.90;;;;;;5071138;28;20306;-62
2022/12/30 03:09:27;;;;;;;;;;;6.30;99.90;;;;;;5071216;28;19991;-63
2022/12/30 03:11:58;;;;;;;;;;;6.30;99.90;;;;;;5070945;28;20301;-63
2022/12/30 03:14:28;;;;;;;;;;;6.20;99.90;;;;;;5070848;28;19909;-63
2022/12/30 03:16:58;;;;;;;;;;;6.20;99.90;;;;;;5071094;28;19916;-63
2022/12/30 03:19:25;;;;;;;;;;;6.20;99.90;;;;;;5070750;28;20402;-63
2022/12/30 03:21:52;;;;;;;;;;;6.20;99.90;;;;;;5070976;28;19909;-63
2022/12/30 03:27:07;;;;;;;;;;;6.10;99.90;;;;;;5070474;28;20370;-63
2022/12/30 03:29:35;;;;;;;;;;;6.10;99.90;;;;;;5070822;28;19962;-63
2022/12/30 03:32:01;;;;;;;;;;;6.20;99.90;;;;;;5070469;28;19916;-63
2022/12/30 03:34:27;;;;;;;;;;;6.10;99.90;;;;;;5070442;28;19909;-63
2022/12/30 03:36:56;;;;;;;;;;;6.10;99.90;;;;;;5070388;28;19909;-63
2022/12/30 03:39:25;;;;;;;;;;;6.00;99.90;;;;;;5070349;28;19948;-63
2022/12/30 03:41:51;;;;;;;;;;;5.90;99.90;;;;;;5070257;28;19908;-63
2022/12/30 03:44:17;;;;;;;;;;;5.80;99.90;;;;;;5070436;28;19935;-63
2022/12/30 03:46:44;;;;;;;;;;;5.80;99.90;;;;;;5070195;28;19959;-63
2022/12/30 03:49:09;;;;;;;;;;;5.90;99.90;;;;;;5070153;28;19909;-63
2022/12/30 03:51:35;;;;;;;;;;;5.80;99.90;;;;;;5070388;28;19913;-63
2022/12/30 03:54:00;;;;;;;;;;;5.80;99.90;;;;;;5070280;28;19916;-63
2022/12/30 03:56:26;;;;;;;;;;;5.80;99.90;;;;;;5070027;28;19912;-63
2022/12/30 03:58:51;;;;;;;;;;;5.80;99.90;;;;;;5069953;28;20370;-63
2022/12/30 04:01:16;;;;;;;;;;;5.80;99.90;;;;;;5070148;28;19913;-63
2022/12/30 04:03:42;;;;;;;;;;;5.70;99.90;;;;;;5070095;28;19919;-63
2022/12/30 04:06:07;;;;;;;;;;;5.70;99.90;;;;;;5086471;28;20343;-63
2022/12/30 04:08:33;;;;;;;;;;;5.70;99.90;;;;;;5071944;28;19908;-63
2022/12/30 04:10:59;;;;;;;;;;;5.60;99.90;;;;;;5090016;28;20285;-63
2022/12/30 04:13:24;;;;;;;;;;;5.60;99.90;;;;;;5090187;28;20281;-63
2022/12/30 04:15:50;;;;;;;;;;;5.50;99.90;;;;;;5088411;28;19908;-63
2022/12/30 04:18:16;;;;;;;;;;;5.50;99.90;;;;;;5076026;28;19977;-64
2022/12/30 04:20:42;;;;;;;;;;;5.60;99.90;;;;;;5076593;28;19913;-63
2022/12/30 04:23:07;;;;;;;;;;;5.60;99.90;;;;;;5076207;28;19909;-63
2022/12/30 04:25:33;;;;;;;;;;;5.60;99.90;;;;;;5076385;28;19965;-63
2022/12/30 04:27:58;;;;;;;;;;;5.60;99.90;;;;;;5076159;28;19908;-63
2022/12/30 04:30:24;;;;;;;;;;;5.60;99.90;;;;;;5076133;28;19909;-63
2022/12/30 04:32:49;;;;;;;;;;;5.50;99.90;;;;;;5076111;28;19916;-63
2022/12/30 04:35:15;;;;;;;;;;;5.50;99.90;;;;;;5076074;28;19909;-63
2022/12/30 04:37:40;;;;;;;;;;;5.50;99.90;;;;;;5076019;28;19908;-63
2022/12/30 04:40:06;;;;;;;;;;;5.40;99.90;;;;;;5075909;28;19919;-63
2022/12/30 04:42:31;;;;;;;;;;;5.50;99.90;;;;;;5075875;28;19962;-63
2022/12/30 04:44:57;;;;;;;;;;;5.40;99.90;;;;;;5075784;28;19912;-63
2022/12/30 04:47:22;;;;;;;;;;;5.40;99.90;;;;;;5075858;28;19918;-63
2022/12/30 04:49:48;;;;;;;;;;;5.40;99.90;;;;;;5075805;28;20451;-63
2022/12/30 04:52:13;;;;;;;;;;;5.30;99.90;;;;;;5075747;28;19915;-63
2022/12/30 04:54:39;;;;;;;;;;;5.40;99.90;;;;;;5075701;28;19948;-63
2022/12/30 04:57:04;;;;;;;;;;;5.40;99.90;;;;;;5075642;28;19962;-63
2022/12/30 04:59:30;;;;;;;;;;;5.40;99.90;;;;;;5075887;28;19908;-63
2022/12/30 05:01:55;;;;;;;;;;;5.40;99.90;;;;;;5075557;28;19938;-63
2022/12/30 05:04:21;;;;;;;;;;;5.40;99.90;;;;;;5075205;28;20308;-63
2022/12/30 05:06:46;;;;;;;;;;;5.40;99.90;;;;;;5075471;28;19909;-63
2022/12/30 05:09:12;;;;;;;;;;;5.40;99.90;;;;;;5057580;28;19909;-63
2022/12/30 05:11:37;;;;;;;;;;;5.40;99.90;;;;;;5075364;28;19931;-63
2022/12/30 05:14:02;;;;;;;;;;;5.40;99.90;;;;;;5075609;28;19908;-63
2022/12/30 05:16:28;;;;;;;;;;;5.40;99.90;;;;;;5075266;28;19909;-63
2022/12/30 05:18:53;;;;;;;;;;;5.50;99.90;;;;;;5075504;28;19915;-63
2022/12/30 05:21:19;;;;;;;;;;;5.40;99.90;;;;;;5075192;28;20038;-63
2022/12/30 05:26:30;;;;;;;;;;;5.30;99.90;;;;;;5074765;28;19912;-63
2022/12/30 05:28:55;;;;;;;;;;;5.20;99.90;;;;;;5074285;28;19935;-63
2022/12/30 05:31:20;;;;;;;;;;;5.20;99.90;;;;;;5075212;28;19999;-63
2022/12/30 05:33:46;;;;;;;;;;;5.20;99.90;;;;;;5075020;28;19957;-65
2022/12/30 05:36:12;;;;;;;;;;;5.30;99.90;;;;;;5074867;28;20358;-63
2022/12/30 05:38:38;;;;;;;;;;;5.30;99.90;;;;;;5075062;28;19908;-63
2022/12/30 05:41:04;;;;;;;;;;;5.30;99.90;;;;;;5074758;28;19909;-62
2022/12/30 05:43:30;;;;;;;;;;;5.30;99.90;;;;;;5074733;28;19909;-63
2022/12/30 05:45:55;;;;;;;;;;;5.20;99.90;;;;;;5074628;28;19916;-63
2022/12/30 05:48:21;;;;;;;;;;;5.10;99.90;;;;;;5074635;28;19909;-63
2022/12/30 05:50:48;;;;;;;;;;;5.20;99.90;;;;;;5056824;28;19999;-64
2022/12/30 05:53:13;;;;;;;;;;;5.10;99.90;;;;;;5074804;28;19909;-63
2022/12/30 05:55:39;;;;;;;;;;;5.10;99.90;;;;;;5074441;28;20424;-63
2022/12/30 05:58:04;;;;;;;;;;;5.10;99.90;;;;;;5074641;28;19908;-63
2022/12/30 06:00:29;;;;;;;;;;;5.20;99.90;;;;;;5074646;28;19908;-63
2022/12/30 06:02:55;;;;;;;;;;;5.20;99.90;;;;;;5074367;28;20443;-63
2022/12/30 06:05:21;;;;;;;;;;;5.30;99.90;;;;;;5074047;28;20282;-63
2022/12/30 06:07:46;;;;;;;;;;;5.30;99.90;;;;;;5074279;28;19930;-63
2022/12/30 06:10:11;;;;;;;;;;;5.20;99.90;;;;;;5074503;28;19917;-63
2022/12/30 06:12:37;;;;;;;;;;;5.20;99.90;;;;;;5074449;28;19914;-63
2022/12/30 06:15:03;;;;;;;;;;;5.30;99.90;;;;;;5074158;28;19909;-63
2022/12/30 06:17:28;;;;;;;;;;;5.30;99.90;;;;;;5056209;28;20323;-63
2022/12/30 06:19:53;;;;;;;;;;;5.30;99.90;;;;;;5074034;28;19987;-63
2022/12/30 06:22:19;;;;;;;;;;;5.30;99.90;;;;;;5074023;28;19909;-63
2022/12/30 06:24:44;;;;;;;;;;;5.20;99.90;;;;;;5074200;28;19962;-62
2022/12/30 06:27:10;;;;;;;;;;;5.20;99.90;;;;;;5074220;28;19916;-63
2022/12/30 06:29:35;;;;;;;;;;;5.10;99.90;;;;;;5073957;28;19912;-63
2022/12/30 06:32:01;;;;;;;;;;;5.00;99.90;;;;;;5073883;28;20002;-63
2022/12/30 06:34:26;;;;;;;;;;;5.00;99.90;;;;;;5073816;28;19909;-63
2022/12/30 06:36:52;;;;;;;;;;;4.90;99.90;;;;;;5073786;28;19908;-62
2022/12/30 06:39:17;;;;;;;;;;;4.90;99.90;;;;;;5073860;28;20001;-64
2022/12/30 06:41:43;;;;;;;;;;;4.80;99.90;;;;;;5073878;28;19908;-62
2022/12/30 06:44:08;;;;;;;;;;;4.80;99.90;;;;;;5073679;28;19962;-63
2022/12/30 06:46:34;;;;;;;;;;;4.70;99.90;;;;;;5073833;28;19979;-62
2022/12/30 06:48:59;;;;;;;;;;;4.60;99.90;;;;;;5073930;28;19944;-62
2022/12/30 06:51:24;;;;;;;;;;;4.60;99.90;;;;;;5073606;28;19913;-62
2022/12/30 06:53:50;;;;;;;;;;;4.60;99.90;;;;;;5073609;28;20366;-62
2022/12/30 06:56:15;;;;;;;;;;;4.60;99.90;;;;;;5073862;28;19913;-63
2022/12/30 06:58:41;;;;;;;;;;;4.60;99.90;;;;;;5073865;28;19991;-62
2022/12/30 07:01:06;;;;;;;;;;;4.70;99.90;;;;;;5073501;28;19924;-63
2022/12/30 07:03:32;;;;;;;;;;;4.90;99.90;;;;;;5055674;28;20356;-63
2022/12/30 07:05:57;;;;;;;;;;;4.90;99.90;;;;;;5073191;28;19927;-63
2022/12/30 07:08:23;;;;;;;;;;;4.90;99.90;;;;;;5073363;28;19912;-63
2022/12/30 07:10:48;;;;;;;;;;;5.00;99.90;;;;;;5073450;28;19999;-63
2022/12/30 07:13:13;;;;;;;;;;;5.20;99.90;;;;;;5073407;28;19908;-63
2022/12/30 07:15:39;;;;;;;;;;;5.20;99.90;;;;;;5073692;28;19916;-63
2022/12/30 07:18:05;;;;;;;;;;;5.30;99.90;;;;;;5073588;28;19978;-62
2022/12/30 07:20:30;;;;;;;;;;;5.30;99.90;;;;;;5073371;28;19908;-62
2022/12/30 07:22:56;;;;;;;;;;;5.40;99.90;;;;;;5073373;28;19966;-62
2022/12/30 07:25:21;;;;;;;;;;;5.50;99.90;;;;;;5073246;28;19913;-63
2022/12/30 07:27:46;;;;;;;;;;;5.50;99.90;;;;;;5073563;28;19908;-63
2022/12/30 07:30:12;;;;;;;;;;;5.50;99.90;;;;;;5073241;28;20298;-63
2022/12/30 07:32:38;;;;;;;;;;;5.50;99.90;;;;;;5073217;28;19909;-63
2022/12/30 07:35:07;;;;;;;;;;;5.50;99.90;;;;;;5073209;28;19916;-63
2022/12/30 07:37:33;;;;;;;;;;;5.50;99.90;;;;;;5073182;28;19908;-63
2022/12/30 07:39:58;;;;;;;;;;;5.40;99.90;;;;;;5073423;28;19931;-63
2022/12/30 07:42:24;;;;;;;;;;;5.40;99.90;;;;;;5073397;28;19908;-63
2022/12/30 07:44:49;;;;;;;;;;;5.50;99.90;;;;;;5073286;28;19913;-63
2022/12/30 07:47:16;;;;;;;;;;;5.60;99.90;;;;;;5073118;28;19916;-63
2022/12/30 07:49:41;;;;;;;;;;;5.60;99.90;;;;;;5073111;28;19915;-62
2022/12/30 07:52:07;;;;;;;;;;;5.70;99.90;;;;;;5074682;28;19991;-63
2022/12/30 07:54:32;;;;;;;;;;;5.80;99.90;;;;;;5076843;28;19912;-63
2022/12/30 07:56:57;;;;;;;;;;;5.90;99.90;;;;;;5077012;28;19909;-62
2022/12/30 07:59:23;;;;;;;;;;;6.00;99.90;;;;;;5076776;28;20377;-62
2022/12/30 08:01:48;;;;;;;;;;;6.10;99.90;;;;;;5076687;28;19917;-63
2022/12/30 08:04:14;;;;;;;;;;;6.30;99.90;;;;;;5076644;28;20007;-63
2022/12/30 08:06:39;;;;;;;;;;;6.40;99.90;;;;;;5076517;28;20251;-62
2022/12/30 08:09:05;;;;;;;;;;;6.50;99.90;;;;;;5076506;28;19915;-62
2022/12/30 08:11:31;;;;;;;;;;;6.70;99.90;;;;;;5076522;28;19908;-62
2022/12/30 08:13:57;;;;;;;;;;;6.80;99.90;;;;;;5058955;28;19908;-62
2022/12/30 08:16:22;;;;;;;;;;;6.80;99.90;;;;;;5076443;28;19912;-63
2022/12/30 08:18:48;;;;;;;;;;;6.90;99.90;;;;;;5076565;28;19916;-62
2022/12/30 08:21:14;;;;;;;;;;;6.90;99.90;;;;;;5041760;28;19908;-62
2022/12/30 08:23:42;;;;;;;;;;;6.80;99.90;;;;;;5076559;28;19962;-63
2022/12/30 08:26:09;;;;;;;;;;;6.70;99.90;;;;;;5076393;28;19962;-63
2022/12/30 08:28:35;;;;;;;;;;;6.70;99.90;;;;;;5076227;28;19913;-62
2022/12/30 08:31:08;;;;;;;;;;;6.80;99.90;;;;;;5076371;28;20328;-62
2022/12/30 08:33:34;;;;;;;;;;;7.00;99.90;;;;;;5076101;28;19909;-62
2022/12/30 08:36:01;;;;;;;;;;;7.10;99.90;;;;;;5076066;28;19965;-63
2022/12/30 08:38:26;;;;;;;;;;;7.20;99.90;;;;;;5076243;28;19912;-62
2022/12/30 08:40:52;;;;;;;;;;;7.20;99.90;;;;;;5076227;28;19915;-63
2022/12/30 08:43:18;;;;;;;;;;;7.20;99.90;;;;;;5076200;28;19908;-63
2022/12/30 08:45:44;;;;;;;;;;;7.20;99.90;;;;;;5041686;28;20438;-62
2022/12/30 08:48:10;;;;;;;;;;;7.20;99.90;;;;;;5076105;28;19948;-63
2022/12/30 08:50:35;;;;;;;;;;;7.20;99.90;;;;;;5075792;28;20369;-63
2022/12/30 08:53:00;;;;;;;;;;;7.30;99.90;;;;;;5057747;28;19947;-63
2022/12/30 08:55:27;;;;;;;;;;;7.30;99.90;;;;;;5075967;28;19920;-62
2022/12/30 08:57:53;;;;;;;;;;;7.40;99.90;;;;;;5075618;28;20366;-63
2022/12/30 09:00:18;;;;;;;;;;;7.50;99.90;;;;;;5075870;28;19916;-62
2022/12/30 09:02:44;;;;;;;;;;;7.70;99.90;;;;;;5057524;28;19971;-63
2022/12/30 09:05:09;;;;;;;;;;;7.80;99.90;;;;;;5075357;28;19927;-62
2022/12/30 09:07:35;;;;;;;;;;;8.00;99.90;;;;;;5057871;28;19951;-62
2022/12/30 09:10:01;;;;;;;;;;;8.00;99.90;;;;;;5075406;28;19914;-62
2022/12/30 09:12:26;;;;;;;;;;;7.90;99.90;;;;;;5057836;28;19912;-62
2022/12/30 09:14:52;;;;;;;;;;;8.00;99.90;;;;;;5075329;28;19943;-62
2022/12/30 09:17:17;;;;;;;;;;;8.00;99.90;;;;;;5075385;28;20354;-62
2022/12/30 09:19:43;;;;;;;;;;;8.00;99.90;;;;;;5075206;28;20027;-62
2022/12/30 09:22:09;;;;;;;;;;;8.10;99.90;;;;;;5075154;28;19915;-62
2022/12/30 09:24:35;;;;;;;;;;;8.10;99.90;;;;;;5075272;28;19909;-62
2022/12/30 09:27:00;;;;;;;;;;;8.10;99.90;;;;;;5075038;28;20324;-62
2022/12/30 09:29:25;;;;;;;;;;;8.10;99.90;;;;;;5075008;28;19913;-62
2022/12/30 09:31:51;;;;;;;;;;;8.20;99.90;;;;;;5075164;28;19909;-62
2022/12/30 09:34:16;;;;;;;;;;;8.20;99.90;;;;;;5074930;28;19934;-65
2022/12/30 09:36:42;;;;;;;;;;;8.20;99.90;;;;;;5074866;28;19962;-62
2022/12/30 09:39:07;;;;;;;;;;;8.30;99.90;;;;;;5075041;28;19957;-62
2022/12/30 09:44:50;;;;;;;;;;;8.30;99.90;;;;;;5074317;28;20009;-62
2022/12/30 09:47:24;;;;;;;;;;;8.30;99.90;;;;;;5074626;28;20015;-62
2022/12/30 09:49:53;;;;;;;;;;;8.30;99.90;;;;;;5074894;28;19912;-62
2022/12/30 09:52:23;;;;;;;;;;;8.40;99.90;;;;;;5074836;28;20277;-62
2022/12/30 09:55:08;;;;;;;;;;;8.40;99.90;;;;;;5056738;28;19916;-62
2022/12/30 09:57:35;;;;;;;;;;;8.50;99.90;;;;;;5074371;28;19913;-62
2022/12/30 10:00:07;;;;;;;;;;;8.50;99.90;;;;;;5074675;28;19909;-62
2022/12/30 10:02:45;;;;;;;;;;;8.50;99.90;;;;;;5074664;28;19995;-62
2022/12/30 10:05:12;;;;;;;;;;;8.60;99.90;;;;;;5074202;28;19921;-62
2022/12/30 10:10:42;;;;;;;;;;;8.60;99.90;;;;;;5091307;27;19926;-63
2022/12/30 10:13:13;;;;;;;;;;;8.70;99.90;;;;;;5091098;28;19912;-63
2022/12/30 10:15:59;;;;;;;;;;;8.70;99.90;;;;;;5089833;28;19944;-63
2022/12/30 10:18:29;;;;;;;;;;;8.80;99.90;;;;;;5091053;28;19909;-63
2022/12/30 10:21:03;;;;;;;;;;;8.80;99.90;;;;;;5090921;28;19950;-63
2022/12/30 10:23:48;;;;;;;;;;;8.80;99.90;;;;;;5091214;28;19908;-63
2022/12/30 10:26:15;;;;;;;;;;;8.80;99.90;;;;;;5089561;28;20381;-62
2022/12/30 10:28:46;;;;;;;;;;;8.80;99.90;;;;;;5090717;28;19912;-63
2022/12/30 10:31:16;;;;;;;;;;;8.90;99.90;;;;;;5090780;28;19955;-62
2022/12/30 10:33:42;;;;;;;;;;;9.00;99.90;;;;;;5090797;28;19909;-62
2022/12/30 10:36:12;;;;;;;;;;;9.00;99.90;;;;;;5089438;28;19908;-63
2022/12/30 10:38:38;;;;;;;;;;;9.20;99.90;;;;;;5090904;28;19913;-63
2022/12/30 10:41:12;;;;;;;;;;;9.30;99.90;;;;;;5090530;28;20370;-63
2022/12/30 10:43:48;;;;;;;;;;;9.40;99.90;;;;;;5090811;28;20304;-62
2022/12/30 10:46:33;;;;;;;;;;;9.50;99.90;;;;;;5090774;28;19913;-63
2022/12/30 10:49:10;;;;;;;;;;;9.60;99.90;;;;;;5089108;28;19913;-63
2022/12/30 10:51:35;;;;;;;;;;;9.70;99.90;;;;;;5090363;28;19994;-63
2022/12/30 10:54:01;;;;;;;;;;;9.80;99.90;;;;;;5090581;28;19923;-63
2022/12/30 10:56:28;;;;;;;;;;;9.80;99.90;;;;;;5090571;28;19908;-63
2022/12/30 10:58:57;;;;;;;;;;;9.70;99.90;;;;;;5090520;28;20003;-63
2022/12/30 11:01:27;;;;;;;;;;;9.70;99.90;;;;;;5090339;28;19995;-63
2022/12/30 11:03:56;;;;;;;;;;;9.70;99.90;;;;;;5090251;28;19934;-63
2022/12/30 11:06:24;;;;;;;;;;;9.60;99.90;;;;;;5090126;28;19908;-63
2022/12/30 11:08:50;;;;;;;;;;;9.60;99.90;;;;;;5097791;28;19998;-62
2022/12/30 11:11:16;;;;;;;;;;;9.70;99.90;;;;;;5110676;28;20391;-63
2022/12/30 11:16:39;;;;;;;;;;;9.70;99.90;;;;;;5110092;28;19908;-63
2022/12/30 11:19:04;;;;;;;;;;;9.90;99.90;;;;;;5110194;28;19908;-63
2022/12/30 11:21:32;;;;;;;;;;;9.90;99.90;;;;;;5098087;28;19912;-62
2022/12/30 11:23:59;;;;;;;;;;;9.80;99.90;;;;;;5096795;28;20354;-63
2022/12/30 11:26:27;;;;;;;;;;;9.80;99.90;;;;;;5096811;28;20281;-63
2022/12/30 11:29:00;;;;;;;;;;;9.70;99.90;;;;;;5096434;28;19919;-63
2022/12/30 11:31:31;;;;;;;;;;;9.70;99.90;;;;;;5096383;28;20002;-63
2022/12/30 11:33:58;;;;;;;;;;;9.70;99.90;;;;;;5096278;28;19916;-62
2022/12/30 11:36:30;;;;;;;;;;;9.70;99.90;;;;;;5096286;28;19912;-63
2022/12/30 11:39:08;;;;;;;;;;;9.60;99.90;;;;;;5096503;28;19915;-62
2022/12/30 11:41:53;;;;;;;;;;;9.60;99.90;;;;;;5096214;28;19912;-62
2022/12/30 11:44:20;;;;;;;;;;;9.70;99.90;;;;;;5096163;28;19916;-62
2022/12/30 11:46:49;;;;;;;;;;;9.70;99.90;;;;;;5096173;28;19953;-62
2022/12/30 11:49:32;;;;;;;;;;;9.70;99.90;;;;;;5096076;28;19932;-62
2022/12/30 11:52:06;;;;;;;;;;;9.60;99.90;;;;;;5096012;28;20285;-62
2022/12/30 11:54:33;;;;;;;;;;;9.60;99.90;;;;;;5096300;28;20338;-62
2022/12/30 11:57:01;;;;;;;;;;;9.60;99.90;;;;;;5095941;28;19909;-62
2022/12/30 11:59:30;;;;;;;;;;;9.60;99.90;;;;;;5096166;28;19908;-62
2022/12/30 12:01:57;;;;;;;;;;;9.60;99.90;;;;;;5096101;28;19908;-62
2022/12/30 12:04:40;;;;;;;;;;;9.60;99.90;;;;;;5096072;28;19908;-62
2022/12/30 12:07:24;;;;;;;;;;;9.60;99.90;;;;;;5095995;28;20289;-62
2022/12/30 12:10:10;;;;;;;;;;;9.60;99.90;;;;;;5095739;28;19920;-62
2022/12/30 12:12:38;;;;;;;;;;;9.60;99.90;;;;;;5095509;28;19915;-62
2022/12/30 12:15:10;;;;;;;;;;;9.60;99.90;;;;;;5095909;28;19912;-62
2022/12/30 12:17:55;;;;;;;;;;;9.70;99.90;;;;;;5095515;28;19912;-62
2022/12/30 12:20:32;;;;;;;;;;;9.70;99.90;;;;;;5095363;28;19915;-63
2022/12/30 12:23:01;;;;;;;;;;;9.70;99.90;;;;;;5095494;28;19915;-62
2022/12/30 12:25:30;;;;;;;;;;;9.60;99.90;;;;;;5095344;28;19908;-63
2022/12/30 12:27:55;;;;;;;;;;;9.60;99.90;;;;;;5095541;28;19915;-62
2022/12/30 12:30:21;;;;;;;;;;;9.60;99.90;;;;;;5095220;28;20358;-63
2022/12/30 12:33:00;;;;;;;;;;;9.60;99.90;;;;;;5094248;28;20377;-63
2022/12/30 12:35:31;;;;;;;;;;;9.60;99.90;;;;;;5095104;28;19975;-63
2022/12/30 12:38:16;;;;;;;;;;;9.60;99.90;;;;;;5095166;28;19909;-62
2022/12/30 12:40:48;;;;;;;;;;;9.60;99.90;;;;;;5094941;28;20284;-63
2022/12/30 12:43:16;;;;;;;;;;;9.60;99.90;;;;;;5095271;28;19974;-62
2022/12/30 12:46:02;;;;;;;;;;;9.60;99.90;;;;;;5095403;28;20341;-62
2022/12/30 12:48:34;;;;;;;;;;;9.60;99.90;;;;;;5094795;28;19919;-63
2022/12/30 12:51:16;;;;;;;;;;;9.50;99.90;;;;;;5094869;28;19908;-63
2022/12/30 12:54:01;;;;;;;;;;;9.60;99.90;;;;;;5095051;28;20318;-63
2022/12/30 12:56:33;;;;;;;;;;;9.50;99.90;;;;;;5094509;28;20362;-63
2022/12/30 12:59:08;;;;;;;;;;;9.40;99.90;;;;;;5095006;28;20015;-63
2022/12/30 13:01:38;;;;;;;;;;;9.50;99.90;;;;;;5094927;28;19912;-63
2022/12/30 13:04:24;;;;;;;;;;;9.50;99.90;;;;;;5076513;28;19965;-63
2022/12/30 13:07:01;;;;;;;;;;;9.60;99.90;;;;;;5094471;28;19951;-63
2022/12/30 13:09:31;;;;;;;;;;;9.50;99.90;;;;;;5094366;28;19942;-64
2022/12/30 13:12:14;;;;;;;;;;;9.60;99.90;;;;;;5076199;28;19914;-63
2022/12/30 13:14:45;;;;;;;;;;;9.50;99.90;;;;;;5094444;28;19915;-63
2022/12/30 13:17:17;;;;;;;;;;;9.60;99.90;;;;;;5094661;28;19916;-63
2022/12/30 13:19:49;;;;;;;;;;;9.50;99.90;;;;;;5094351;28;19998;-63
2022/12/30 13:22:25;;;;;;;;;;;9.60;99.90;;;;;;5094281;28;19958;-63
2022/12/30 13:24:53;;;;;;;;;;;9.60;99.90;;;;;;5094300;28;20366;-63
2022/12/30 13:27:21;;;;;;;;;;;9.60;99.90;;;;;;5094462;28;19908;-64
2022/12/30 13:29:47;;;;;;;;;;;9.60;99.90;;;;;;5094146;28;19912;-64
2022/12/30 13:32:16;;;;;;;;;;;9.50;99.90;;;;;;5094129;28;20288;-63
2022/12/30 13:34:48;;;;;;;;;;;9.70;99.90;;;;;;5094175;28;19931;-64
2022/12/30 13:40:06;;;;;;;;;;;9.70;99.90;;;;;;5071046;28;19920;-62
2022/12/30 13:42:51;;;;;;;;;;;9.70;99.90;;;;;;5070913;28;19913;-63
2022/12/30 13:45:22;;;;;;;;;;;9.80;99.90;;;;;;5070814;28;19956;-62
2022/12/30 13:47:47;;;;;;;;;;;9.80;99.90;;;;;;5071071;28;19920;-63
2022/12/30 13:50:15;;;;;;;;;;;9.80;99.90;;;;;;5070726;28;19976;-62
2022/12/30 13:52:44;;;;;;;;;;;9.90;99.90;;;;;;5070974;28;19909;-62
2022/12/30 13:55:16;;;;;;;;;;;10.10;99.90;;;;;;5086659;28;19987;-62
2022/12/30 13:57:42;;;;;;;;;;;10.20;99.90;;;;;;5070532;28;19909;-62
2022/12/30 14:00:09;;;;;;;;;;;10.20;99.90;;;;;;5070510;28;19909;-63
2022/12/30 14:05:32;;;;;;;;;;;10.20;99.90;;;;;;5091241;27;19912;-62
2022/12/30 14:07:58;;;;;;;;;;;10.20;99.90;;;;;;5089849;28;19966;-62
2022/12/30 14:13:21;;;;;;;;;;;10.20;99.90;;;;;;5071009;28;19913;-62
2022/12/30 14:15:50;;;;;;;;;;;10.30;99.90;;;;;;5070910;28;19913;-62
2022/12/30 14:18:28;;;;;;;;;;;10.40;99.90;;;;;;5069632;28;19916;-62
2022/12/30 14:21:02;;;;;;;;;;;10.40;99.90;;;;;;5070826;28;19909;-62
2022/12/30 14:23:48;;;;;;;;;;;10.40;99.90;;;;;;5070748;28;19916;-62
2022/12/30 14:26:23;;;;;;;;;;;10.50;99.90;;;;;;5070685;28;19909;-62
2022/12/30 14:28:50;;;;;;;;;;;10.50;99.90;;;;;;5070821;28;19913;-62
2022/12/30 14:31:35;;;;;;;;;;;10.40;99.90;;;;;;5070514;28;19913;-62
2022/12/30 14:34:03;;;;;;;;;;;10.30;99.90;;;;;;5070642;28;19967;-63
2022/12/30 14:36:29;;;;;;;;;;;10.10;99.90;;;;;;5069324;28;19913;-63
2022/12/30 14:38:57;;;;;;;;;;;10.00;99.90;;;;;;5070395;28;19915;-63
2022/12/30 14:41:24;;;;;;;;;;;9.90;99.90;;;;;;5070433;28;19909;-63
2022/12/30 14:43:52;;;;;;;;;;;9.80;99.90;;;;;;5070692;28;20344;-63
2022/12/30 14:46:37;;;;;;;;;;;9.70;99.90;;;;;;5070303;28;19964;-63
2022/12/30 14:49:03;;;;;;;;;;;9.60;99.90;;;;;;5070508;28;19915;-63
2022/12/30 14:51:30;;;;;;;;;;;9.50;99.90;;;;;;5070379;28;19913;-63
2022/12/30 14:53:55;;;;;;;;;;;9.50;99.90;;;;;;5070322;28;20378;-63
2022/12/30 14:56:21;;;;;;;;;;;9.60;99.90;;;;;;5070080;28;19909;-62
2022/12/30 14:58:46;;;;;;;;;;;9.60;99.90;;;;;;5070256;28;19912;-62
2022/12/30 15:01:12;;;;;;;;;;;9.70;99.90;;;;;;5069976;28;19909;-63
2022/12/30 15:03:37;;;;;;;;;;;9.60;99.90;;;;;;5069941;28;19909;-63
2022/12/30 15:06:03;;;;;;;;;;;9.50;99.90;;;;;;5069916;28;20083;-63
2022/12/30 15:08:31;;;;;;;;;;;9.40;99.90;;;;;;5070097;28;19908;-64
2022/12/30 15:10:58;;;;;;;;;;;9.40;99.90;;;;;;5072976;28;19917;-64
2022/12/30 15:13:27;;;;;;;;;;;9.30;99.90;;;;;;5071854;28;19912;-63
2022/12/30 15:15:54;;;;;;;;;;;9.30;99.90;;;;;;5090011;28;19909;-63
2022/12/30 15:18:29;;;;;;;;;;;9.30;99.90;;;;;;5089930;28;20007;-65
2022/12/30 15:20:54;;;;;;;;;;;9.40;99.90;;;;;;5090103;28;19920;-63
2022/12/30 15:23:20;;;;;;;;;;;9.40;99.90;;;;;;5082154;28;19912;-63
2022/12/30 15:26:02;;;;;;;;;;;9.40;99.90;;;;;;5076625;28;19966;-63
2022/12/30 15:28:29;;;;;;;;;;;9.30;99.90;;;;;;5076406;28;19912;-63
2022/12/30 15:30:54;;;;;;;;;;;9.20;99.90;;;;;;5076474;28;19935;-63
2022/12/30 15:33:20;;;;;;;;;;;9.20;99.90;;;;;;5076160;28;20385;-63
2022/12/30 15:35:46;;;;;;;;;;;9.10;99.90;;;;;;5076135;28;19909;-63
2022/12/30 15:38:14;;;;;;;;;;;9.20;99.90;;;;;;5058164;28;19963;-63
2022/12/30 15:40:42;;;;;;;;;;;9.10;99.90;;;;;;5076021;28;19908;-64
2022/12/30 15:43:12;;;;;;;;;;;9.10;99.90;;;;;;5057994;28;19908;-63
2022/12/30 15:45:40;;;;;;;;;;;9.10;99.90;;;;;;5076135;28;19971;-63